WetterOnline ( http://www.wetteronline.de )

Wetter aktuell Zwickau

Aktuelles Wetter: Chemnitz (420m)

6-stündlich | Neueste Meldungen
Ortszeit Temperatur Wetter
Do, 19.04. 8:00 12.8° C wolkig
Do, 19.04. 2:00 12.4° C fast wolkenlos
Mi, 18.04. 20:00 18.6° C fast wolkenlos
Mi, 18.04. 14:00 20.4° C wolkenlos
Mi, 18.04. 8:00 11.0° C leicht bewölkt
Mi, 18.04. 2:00 10.4° C bedeckt
Di, 17.04. 20:00 13.1° C wolkenlos
Di, 17.04. 14:00 13.5° C bewölkt
Ortszeit Temperatur Wetter
Do, 19.04. 17:10 21.8° C wolkig
Do, 19.04. 17:00 22.0° C leicht bewölkt
Do, 19.04. 16:50 22.0° C leicht bewölkt
Do, 19.04. 16:40 22.2° C fast wolkenlos
Do, 19.04. 16:30 21.9° C leicht bewölkt
Do, 19.04. 16:20 21.9° C leicht bewölkt
Do, 19.04. 16:00 22.1° C leicht bewölkt
Do, 19.04. 15:30 22.1° C wolkenlos
Do, 19.04. 15:00 22.3° C wolkenlos
Do, 19.04. 14:30 22.1° C leicht bewölkt
Do, 19.04. 14:00 22.0° C leicht bewölkt
Ortszeit Relative Feuchte Sichtweite
Do, 19.04. 8:00 62% 16 km
Do, 19.04. 2:00 64% 22 km
Mi, 18.04. 20:00 44% 30 km
Mi, 18.04. 14:00 31% 30 km
Mi, 18.04. 8:00 75% 8 km
Mi, 18.04. 2:00 80% 6 km
Di, 17.04. 20:00 73% 7 km
Di, 17.04. 14:00 74% 4.1 km
Ortszeit Relative Feuchte Sichtweite
Do, 19.04. 17:10 44% -
Do, 19.04. 17:00 45% 24 km
Do, 19.04. 16:50 45% -
Do, 19.04. 16:40 42% -
Do, 19.04. 16:30 44% 16 km
Do, 19.04. 16:20 44% -
Do, 19.04. 16:00 48% 14 km
Do, 19.04. 15:30 47% 19 km
Do, 19.04. 15:00 44% 25 km
Do, 19.04. 14:30 42% 22 km
Do, 19.04. 14:00 40% 29 km
Ortszeit Niederschlagsmenge Niederschlagsart
Do, 19.04. 8:00 0.0 l/m2 in 12 Std. -
Do, 19.04. 2:00 0.0 l/m2 in 6 Std. -
Mi, 18.04. 20:00 0.0 l/m2 in 12 Std. -
Mi, 18.04. 14:00 0.0 l/m2 in 6 Std. -
Mi, 18.04. 8:00 0.0 l/m2 in 12 Std. -
Mi, 18.04. 2:00 0.0 l/m2 in 6 Std. -
Di, 17.04. 20:00 0.0 l/m2 in 12 Std. -
Di, 17.04. 14:00 0.0 l/m2 in 6 Std. -
Ortszeit Niederschlagsmenge Niederschlagsart
Do, 19.04. 17:10 keine Meldung -
Do, 19.04. 17:00 0.0 l/m2 in 1 Std. -
Do, 19.04. 16:50 keine Meldung -
Do, 19.04. 16:40 keine Meldung -
Do, 19.04. 16:30 0.0 l/m2 in 1 Std. -
Do, 19.04. 16:20 keine Meldung -
Do, 19.04. 16:00 0.0 l/m2 in 1 Std. -
Do, 19.04. 15:30 0.0 l/m2 in 1 Std. -
Do, 19.04. 15:00 0.0 l/m2 in 1 Std. -
Do, 19.04. 14:30 keine Meldung -
Do, 19.04. 14:00 0.0 l/m2 in 1 Std. -
Ortszeit Stärke Spitze Richtung
km/h Bft. km/h Grad Sektor
Do, 19.04. 8:00 6 1 17 120° SO
Do, 19.04. 2:00 11 2 14 120° SO
Mi, 18.04. 20:00 7 2 22 50° NO
Mi, 18.04. 14:00 4 1 22 360° N
Mi, 18.04. 8:00 6 1 13 140° SO
Mi, 18.04. 2:00 7 2 11 170° S
Di, 17.04. 20:00 9 2 19 20° N
Di, 17.04. 14:00 7 2 18 330° NW
Ortszeit Stärke Spitze Richtung
km/h Bft. km/h Grad Sektor
Do, 19.04. 17:10 18 3 - 50° NO
Do, 19.04. 17:00 17 3 26 50° NO
Do, 19.04. 16:50 17 3 - 50° NO
Do, 19.04. 16:40 19 3 - 40° NO
Do, 19.04. 16:30 17 3 24 50° NO
Do, 19.04. 16:20 17 3 - 50° NO
Do, 19.04. 16:00 14 3 29 40° NO
Do, 19.04. 15:30 18 3 29 30° NO
Do, 19.04. 15:00 13 3 26 40° NO
Do, 19.04. 14:30 13 3 26 40° NO
Do, 19.04. 14:00 13 3 31 40° NO
Ortszeit Untergrenze Bedeckung Gattung
total tief tief mittel hoch
Do, 19.04. 8:00 2400 m 8/8 2/8 - - -
Do, 19.04. 2:00 3900 m 1/8 1/8 - - -
Mi, 18.04. 20:00 10500 m 1/8 0/8 - - -
Mi, 18.04. 14:00 10500 m 0/8 0/8 - - -
Mi, 18.04. 8:00 9000 m 7/8 0/8 - - -
Mi, 18.04. 2:00 - 8/8 - - - -
Di, 17.04. 20:00 10500 m 0/8 0/8 - - -
Di, 17.04. 14:00 420 m 7/8 7/8 - - -
Ortszeit Bedeckungsgrad in Achtel und Wolkenuntergrenze
Do, 19.04. 17:10 8(10500m)
Do, 19.04. 17:00 5(10500m)
Do, 19.04. 16:50 5(10500m)
Do, 19.04. 16:40 2(10500m)
Do, 19.04. 16:30 1(3900m)
Do, 19.04. 16:20 1(3900m) 2(10500m)
Do, 19.04. 16:00 5(10500m)
Do, 19.04. 15:30 3(10500m)
Do, 19.04. 15:00 keine Wolken
Do, 19.04. 14:30 1(3600m)
Do, 19.04. 14:00 7(12000m) 2(3600m) 6(12000m)
Ortszeit Luftdruck NN (hPa) Tendenz (hPa in 3 Std.)
Do, 19.04. 8:00 1032 - 0,2
Do, 19.04. 2:00 1033 0,0
Mi, 18.04. 20:00 1031 - 0,6
Mi, 18.04. 14:00 1032 0,0
Mi, 18.04. 8:00 1033 + 1,3
Mi, 18.04. 2:00 1031 + 1,0
Di, 17.04. 20:00 1028 + 0,8
Di, 17.04. 14:00 1027 + 0,4
Ortszeit Luftdruck NN (hPa) Tendenz (hPa in 3 Std.)
Do, 19.04. 17:10 1028 keine Meldung
Do, 19.04. 17:00 1028 - 1,5
Do, 19.04. 16:50 1028 keine Meldung
Do, 19.04. 16:40 1028 keine Meldung
Do, 19.04. 16:30 1028 - 1,4
Do, 19.04. 16:20 1028 keine Meldung
Do, 19.04. 16:00 1029 - 1,2
Do, 19.04. 15:30 1029 - 1,3
Do, 19.04. 15:00 1029 - 1,2
Do, 19.04. 14:30 1029 - 1,0
Do, 19.04. 14:00 1030 - 0,9
Ortszeit Schneehöhe (cm)
Do, 19.04. 8:00 0
Do, 19.04. 2:00 0
Mi, 18.04. 20:00 0
Mi, 18.04. 14:00 0
Mi, 18.04. 8:00 0
Mi, 18.04. 2:00 0
Di, 17.04. 20:00 0
Di, 17.04. 14:00 0
Ortszeit Schneehöhe (cm)
Do, 19.04. 17:10 0
Do, 19.04. 17:00 0
Do, 19.04. 16:50 0
Do, 19.04. 16:40 0
Do, 19.04. 16:30 0
Do, 19.04. 16:20 0
Do, 19.04. 16:00 0
Do, 19.04. 15:30 0
Do, 19.04. 15:00 0
Do, 19.04. 14:30 0
Do, 19.04. 14:00 0
Link zu dieser Seite / Seite empfehlen

Das Wetter in ...